Messwerte Skyros

Temperatur

Temperatur
°C
1618894800 8.00 8.00 14
1618898400 9.00 9.00 15
1618902000 10.00 10.00 16
1618905600 11.00 11.00 16
1618909200 12.00 12.00 17
1618912800 13.00 13.00 18
1618916400 14.00 14.00 18
1618920000 15.00 15.00 17
1618923600 16.00 16.00 17
1618927200 17.00 17.00 18
1618930800 18.00 18.00 17
1618934400 19.00 19.00 16
1618938000 20.00 20.00 15
1618941600 21.00 21.00 13
1618945200 22.00 22.00 13
1618948800 23.00 23.00
1618952400 0.00 0.00 14
1618956000 1.00 1.00
1618959600 2.00 2.00
1618963200 3.00 3.00 14
1618966800 4.00 4.00
1618970400 5.00 5.00
1618974000 6.00 6.00 14
1618977600 7.00 7.00 14

Aktuellste Messwerte

Wettercharakter
Wetter: recht sonnig
Temperatur
15 °C
Feuchtigkeit
75 %
Wind
20 km/hWindrichtung: West
Luftdruck
1017 hPa
Messzeit: 21. April 2021, 8.00Datenquelle: METAR

Weitere Messstationen in der Nähe

Messstation Temperatur Entfernung
Tanagra 7 °C 110 km
Limnos 11 °C 124 km
Elefsis 15 °C 129 km
Athen 14 °C 136 km
Anchialos 12 °C 148 km
Chios 11 °C 160 km
Syros 15 °C 175 km

Wind

Windrichtung Böen Mittelwind
° km/h km/h
1618894800 8.00 7.00 - 8.00 260° 40 20
1618898400 9.00 8.00 - 9.00 270° 20
1618902000 10.00 9.00 - 10.00 260° 20
1618905600 11.00 10.00 - 11.00 270° 20
1618909200 12.00 11.00 - 12.00 290° 15
1618912800 13.00 12.00 - 13.00 280° 15
1618916400 14.00 13.00 - 14.00 260° 20
1618920000 15.00 14.00 - 15.00 340° 10
1618923600 16.00 15.00 - 16.00 330° 5
1618927200 17.00 16.00 - 17.00 0
1618930800 18.00 17.00 - 18.00 70° 10
1618934400 19.00 18.00 - 19.00 70° 15
1618938000 20.00 19.00 - 20.00 0
1618941600 21.00 20.00 - 21.00 0
1618945200 22.00 21.00 - 22.00 0
1618948800 23.00 22.00 - 23.00
1618952400 0.00 23.00 - 0.00 180° 15
1618956000 1.00 0.00 - 1.00
1618959600 2.00 1.00 - 2.00
1618963200 3.00 2.00 - 3.00 220° 20
1618966800 4.00 3.00 - 4.00
1618970400 5.00 4.00 - 5.00
1618974000 6.00 5.00 - 6.00 260° 20
1618977600 7.00 6.00 - 7.00 260° 20

Ihre Wetterstation

Fehlt Ihre Wetterstation auf unserem Portal?

Schreiben Sie an network@meteonews.ch

Klima

Wann ist es am wärmsten? Wann regnet es am wenigsten? Unsere Klimadaten geben Auskunft.